createdAt,value
2018-12-14T00:00:25.180Z,8.13
2018-12-14T00:02:53.372Z,8.68
2018-12-14T00:05:21.552Z,8.45
2018-12-14T00:07:49.741Z,8.35
2018-12-14T00:10:17.924Z,8.70
2018-12-14T00:12:46.120Z,8.80
2018-12-14T00:15:14.320Z,8.35
2018-12-14T00:17:42.469Z,9.60
2018-12-14T00:20:10.665Z,8.35
2018-12-14T00:22:38.847Z,8.10
2018-12-14T00:25:07.524Z,8.85
2018-12-14T00:27:35.695Z,9.38
2018-12-14T00:30:04.507Z,8.90
2018-12-14T00:32:32.617Z,9.28
2018-12-14T00:35:00.703Z,8.43
2018-12-14T00:37:28.891Z,8.70
2018-12-14T00:39:57.086Z,8.63
2018-12-14T00:42:26.291Z,9.03
2018-12-14T00:44:54.489Z,9.43
2018-12-14T00:47:22.655Z,9.30
2018-12-14T00:49:50.751Z,8.43
2018-12-14T00:52:18.928Z,9.25
2018-12-14T00:54:47.007Z,8.50
2018-12-14T00:57:15.092Z,8.28
2018-12-14T00:59:43.290Z,8.13
2018-12-14T01:02:16.952Z,8.08
2018-12-14T01:04:45.084Z,8.90
2018-12-14T01:07:13.172Z,9.40
2018-12-14T01:09:41.351Z,8.73
2018-12-14T01:12:09.444Z,8.73
2018-12-14T01:14:37.652Z,9.35
2018-12-14T01:17:05.748Z,8.15
2018-12-14T01:19:33.937Z,8.60
2018-12-14T01:22:02.113Z,8.78
2018-12-14T01:24:30.388Z,8.78
2018-12-14T01:26:58.582Z,8.50
2018-12-14T01:29:26.756Z,8.50
2018-12-14T01:31:54.955Z,8.85
2018-12-14T01:34:23.149Z,8.48
2018-12-14T01:36:51.343Z,9.00
2018-12-14T01:39:19.517Z,8.78
2018-12-14T01:41:47.717Z,8.88
2018-12-14T01:44:15.892Z,8.33
2018-12-14T01:46:44.086Z,7.95
2018-12-14T01:49:12.264Z,8.18
2018-12-14T01:51:40.457Z,8.50
2018-12-14T01:54:08.628Z,8.33
2018-12-14T01:56:36.840Z,8.80
2018-12-14T01:59:05.352Z,7.95
2018-12-14T02:01:33.510Z,7.97
2018-12-14T02:04:01.768Z,7.97
2018-12-14T02:06:29.868Z,9.00
2018-12-14T02:08:58.066Z,8.60
2018-12-14T02:11:26.250Z,8.75
2018-12-14T02:13:54.436Z,8.23
2018-12-14T02:16:22.619Z,7.37
2018-12-14T02:18:50.828Z,8.45
2018-12-14T02:21:18.999Z,7.80
2018-12-14T02:23:47.195Z,7.75
2018-12-14T02:26:15.412Z,8.08
2018-12-14T02:28:43.768Z,8.13
2018-12-14T02:31:11.951Z,8.08
2018-12-14T02:33:40.143Z,9.18
2018-12-14T02:36:08.324Z,8.23
2018-12-14T02:38:36.518Z,8.75
2018-12-14T02:41:04.755Z,8.20
2018-12-14T02:43:32.972Z,8.50
2018-12-14T02:46:01.081Z,7.60
2018-12-14T02:48:29.272Z,8.55
2018-12-14T02:50:57.440Z,8.20
2018-12-14T02:53:25.643Z,7.08
2018-12-14T02:55:53.808Z,6.90
2018-12-14T02:58:22.026Z,7.92
2018-12-14T03:00:50.200Z,7.58
2018-12-14T03:03:18.408Z,9.05
2018-12-14T03:05:46.563Z,7.37
2018-12-14T03:08:14.813Z,7.58
2018-12-14T03:10:42.934Z,7.17
2018-12-14T03:13:11.133Z,7.55
2018-12-14T03:15:39.412Z,7.85
2018-12-14T03:18:07.601Z,7.75
2018-12-14T03:20:35.781Z,8.15
2018-12-14T03:23:03.977Z,7.60
2018-12-14T03:25:32.163Z,7.33
2018-12-14T03:28:00.337Z,7.58
2018-12-14T03:30:28.426Z,7.58
2018-12-14T03:32:56.614Z,6.78
2018-12-14T03:35:24.828Z,6.40
2018-12-14T03:37:52.984Z,6.45
2018-12-14T03:40:21.269Z,7.20
2018-12-14T03:42:49.460Z,6.67
2018-12-14T03:45:17.664Z,6.40
2018-12-14T03:47:45.844Z,7.25
2018-12-14T03:50:14.028Z,7.08
2018-12-14T03:52:42.200Z,7.42
2018-12-14T03:55:10.291Z,6.92
2018-12-14T03:57:38.481Z,7.10
2018-12-14T04:00:09.553Z,7.35
2018-12-14T04:02:37.849Z,7.40
2018-12-14T04:05:06.025Z,7.15
2018-12-14T04:07:34.191Z,7.58
2018-12-14T04:10:02.298Z,8.00
2018-12-14T04:12:30.484Z,7.78
2018-12-14T04:14:58.683Z,7.47
2018-12-14T04:17:26.867Z,6.42
2018-12-14T04:19:55.048Z,7.30
2018-12-14T04:22:23.239Z,6.78
2018-12-14T04:24:51.436Z,6.60
2018-12-14T04:27:19.756Z,7.35
2018-12-14T04:29:47.889Z,6.75
2018-12-14T04:32:16.123Z,6.97
2018-12-14T04:34:44.228Z,7.75
2018-12-14T04:37:12.364Z,7.28
2018-12-14T04:39:40.635Z,6.97
2018-12-14T04:42:08.832Z,7.58
2018-12-14T04:44:37.020Z,7.35
2018-12-14T04:47:05.475Z,7.62
2018-12-14T04:49:33.867Z,7.62
2018-12-14T04:52:03.987Z,7.42
2018-12-14T04:54:32.125Z,7.00
2018-12-14T04:57:00.312Z,7.53
2018-12-14T04:59:28.492Z,7.37
2018-12-14T05:01:56.693Z,7.45
2018-12-14T05:04:24.869Z,7.85
2018-12-14T05:06:53.061Z,8.35
2018-12-14T05:09:21.244Z,8.28
2018-12-14T05:11:49.437Z,7.72
2018-12-14T05:14:18.224Z,8.18
2018-12-14T05:16:46.451Z,8.58
2018-12-14T05:19:14.740Z,8.00
2018-12-14T05:21:43.267Z,8.13
2018-12-14T05:24:11.383Z,8.23
2018-12-14T05:26:39.579Z,7.87
2018-12-14T05:29:07.747Z,8.00
2018-12-14T05:31:35.976Z,8.58
2018-12-14T05:34:04.136Z,7.85
2018-12-14T05:36:32.332Z,7.92
2018-12-14T05:39:00.604Z,8.50
2018-12-14T05:41:28.804Z,8.78
2018-12-14T05:43:56.979Z,7.87
2018-12-14T05:46:25.180Z,7.70
2018-12-14T05:48:53.351Z,8.70
2018-12-14T05:51:21.552Z,9.10
2018-12-14T05:53:49.739Z,8.13
2018-12-14T05:56:17.831Z,9.13
2018-12-14T05:58:46.009Z,8.78
2018-12-14T06:01:14.196Z,8.70
2018-12-14T06:03:42.378Z,8.48
2018-12-14T06:06:10.563Z,8.70
2018-12-14T06:08:38.758Z,9.05
2018-12-14T06:11:06.939Z,8.10
2018-12-14T06:13:35.128Z,8.78
2018-12-14T06:16:03.303Z,9.18
2018-12-14T06:18:31.532Z,9.00
2018-12-14T06:20:59.680Z,8.48
2018-12-14T06:23:27.881Z,8.00
2018-12-14T06:25:56.051Z,8.43
2018-12-14T06:28:24.256Z,8.43
2018-12-14T06:30:52.427Z,8.40
2018-12-14T06:33:20.641Z,8.60
2018-12-14T06:35:48.808Z,7.90
2018-12-14T06:38:17.004Z,9.13
2018-12-14T06:40:45.184Z,8.13
2018-12-14T06:43:15.609Z,9.10
2018-12-14T06:45:43.511Z,9.58
2018-12-14T06:48:11.695Z,10.13
2018-12-14T06:50:39.952Z,8.60
2018-12-14T06:53:08.236Z,9.13
2018-12-14T06:55:36.343Z,8.85
2018-12-14T06:58:04.535Z,9.58
2018-12-14T07:00:32.720Z,8.75
2018-12-14T07:03:00.912Z,9.80
2018-12-14T07:05:29.108Z,8.40
2018-12-14T07:07:57.278Z,8.15
2018-12-14T07:10:25.459Z,8.05
2018-12-14T07:12:53.660Z,8.40
2018-12-14T07:15:21.829Z,8.43
2018-12-14T07:17:50.055Z,8.53
2018-12-14T07:20:18.225Z,8.15
2018-12-14T07:22:46.409Z,8.43
2018-12-14T07:25:14.719Z,8.18
2018-12-14T07:27:42.984Z,9.13
2018-12-14T07:30:11.147Z,9.03
2018-12-14T07:32:39.267Z,8.35
2018-12-14T07:35:07.435Z,8.55
2018-12-14T07:37:35.628Z,8.98
2018-12-14T07:40:04.803Z,8.40
2018-12-14T07:42:32.936Z,8.38
2018-12-14T07:45:01.120Z,8.50
2018-12-14T07:47:29.287Z,8.18
2018-12-14T07:49:57.480Z,8.38
2018-12-14T07:52:25.672Z,10.93
2018-12-14T07:54:53.855Z,9.73
2018-12-14T07:57:21.935Z,8.43
2018-12-14T07:59:50.120Z,8.80
2018-12-14T08:02:18.312Z,8.35
2018-12-14T08:04:46.498Z,9.25
2018-12-14T08:07:15.055Z,8.25
2018-12-14T08:09:43.327Z,8.25
2018-12-14T08:12:11.491Z,9.18
2018-12-14T08:14:39.672Z,9.55
2018-12-14T08:17:07.865Z,11.70
2018-12-14T08:19:36.047Z,12.95
2018-12-14T08:22:04.233Z,11.70
2018-12-14T08:24:32.416Z,11.78
2018-12-14T08:27:00.601Z,12.40
2018-12-14T08:29:28.795Z,11.73
2018-12-14T08:31:56.992Z,12.55
2018-12-14T08:34:25.239Z,13.78
2018-12-14T08:36:53.443Z,11.20
2018-12-14T08:39:21.640Z,9.50
2018-12-14T08:41:49.820Z,9.45
2018-12-14T08:44:18.015Z,9.48
2018-12-14T08:46:46.229Z,9.40
2018-12-14T08:49:14.503Z,9.73
2018-12-14T08:51:42.823Z,10.48
2018-12-14T08:54:10.976Z,11.12
2018-12-14T08:56:39.147Z,9.38
2018-12-14T08:59:07.344Z,9.25
2018-12-14T09:01:35.519Z,8.20
2018-12-14T09:04:03.710Z,8.83
2018-12-14T09:06:31.904Z,9.15
2018-12-14T09:09:00.096Z,8.73
2018-12-14T09:11:28.371Z,8.28
2018-12-14T09:13:56.568Z,9.93
2018-12-14T09:16:24.747Z,9.33
2018-12-14T09:18:52.948Z,9.85
2018-12-14T09:21:21.130Z,13.80
2018-12-14T09:23:49.311Z,13.28
2018-12-14T09:26:17.496Z,10.85
2018-12-14T09:28:45.803Z,10.20
2018-12-14T09:31:14.353Z,10.03
2018-12-14T09:33:42.463Z,9.88
2018-12-14T09:36:10.664Z,9.58
2018-12-14T09:38:38.915Z,10.50
2018-12-14T09:41:07.128Z,9.80
2018-12-14T09:43:35.320Z,9.98
2018-12-14T09:46:03.496Z,9.50
2018-12-14T09:48:31.736Z,9.78
2018-12-14T09:50:59.900Z,9.95
2018-12-14T09:53:28.210Z,10.05
2018-12-14T09:55:56.352Z,8.98
2018-12-14T09:58:24.543Z,9.48
2018-12-14T10:00:52.724Z,8.90
2018-12-14T10:03:20.927Z,8.70
2018-12-14T10:05:49.104Z,10.10
2018-12-14T10:08:17.561Z,9.93
2018-12-14T10:10:46.169Z,9.15
2018-12-14T10:13:14.476Z,9.13
2018-12-14T10:15:42.645Z,9.88
2018-12-14T10:18:10.831Z,9.53
2018-12-14T10:20:38.929Z,9.00
2018-12-14T10:23:07.105Z,9.08
2018-12-14T10:25:35.299Z,9.35
2018-12-14T10:28:03.480Z,9.23
2018-12-14T10:30:31.684Z,9.10
2018-12-14T10:32:59.861Z,9.50
2018-12-14T10:35:28.048Z,9.23
2018-12-14T10:37:56.220Z,9.55
2018-12-14T10:40:24.320Z,9.05
2018-12-14T10:42:52.491Z,8.68
2018-12-14T10:45:21.876Z,8.95
2018-12-14T10:47:50.010Z,9.50
2018-12-14T10:50:18.216Z,8.78
2018-12-14T10:52:46.382Z,9.30
2018-12-14T10:55:14.598Z,9.95
2018-12-14T10:57:42.954Z,9.40
2018-12-14T11:00:18.540Z,9.00
2018-12-14T11:02:46.621Z,9.65
2018-12-14T11:05:14.800Z,9.83
2018-12-14T11:07:42.976Z,9.98
2018-12-14T11:10:11.174Z,13.32
2018-12-14T11:12:39.328Z,9.35
2018-12-14T11:15:07.433Z,8.40
2018-12-14T11:17:35.656Z,8.48
2018-12-14T11:20:03.994Z,8.80
2018-12-14T11:22:32.196Z,9.23
2018-12-14T11:25:00.393Z,8.35
2018-12-14T11:27:28.588Z,8.43
2018-12-14T11:29:56.767Z,8.68
2018-12-14T11:32:24.847Z,8.55
2018-12-14T11:34:53.047Z,8.18
2018-12-14T11:37:21.205Z,9.08
2018-12-14T11:39:49.307Z,8.83
2018-12-14T11:42:18.262Z,8.63
2018-12-14T11:44:46.524Z,9.90
2018-12-14T11:47:18.121Z,13.75
2018-12-14T11:49:44.838Z,10.80
2018-12-14T11:52:12.987Z,9.63
2018-12-14T11:54:41.375Z,9.78
2018-12-14T11:57:09.476Z,10.98
2018-12-14T11:59:37.712Z,10.20
2018-12-14T12:02:05.857Z,11.50
2018-12-14T12:04:34.031Z,10.60
2018-12-14T12:07:02.133Z,10.08
2018-12-14T12:09:30.308Z,11.90
2018-12-14T12:11:58.500Z,13.38
2018-12-14T12:14:32.569Z,10.90
2018-12-14T12:17:00.771Z,27.60
2018-12-14T12:19:28.916Z,12.68
2018-12-14T12:21:57.384Z,10.23
2018-12-14T12:24:25.587Z,8.58
2018-12-14T12:26:53.787Z,8.58
2018-12-14T12:29:21.960Z,8.63
2018-12-14T12:31:50.148Z,9.48
2018-12-14T12:34:18.339Z,9.00
2018-12-14T12:36:46.552Z,9.93
2018-12-14T12:39:14.803Z,9.13
2018-12-14T12:41:42.908Z,8.68
2018-12-14T12:44:11.120Z,8.68
2018-12-14T12:46:39.280Z,9.43
2018-12-14T12:49:07.498Z,9.18
2018-12-14T12:51:35.657Z,7.83
2018-12-14T12:54:03.823Z,8.38
2018-12-14T12:56:32.193Z,7.97
2018-12-14T12:59:00.409Z,8.85
2018-12-14T13:01:28.624Z,9.30
2018-12-14T13:03:56.784Z,9.18
2018-12-14T13:06:24.960Z,8.75
2018-12-14T13:08:53.164Z,8.68
2018-12-14T13:11:21.344Z,9.18
2018-12-14T13:13:49.587Z,9.05
2018-12-14T13:16:17.708Z,8.58
2018-12-14T13:18:45.864Z,8.33
2018-12-14T13:21:14.181Z,9.13
2018-12-14T13:23:42.448Z,8.15
2018-12-14T13:26:10.552Z,9.60
2018-12-14T13:28:39.057Z,9.30
2018-12-14T13:31:07.244Z,9.53
2018-12-14T13:33:35.424Z,8.48
2018-12-14T13:36:03.703Z,9.13
2018-12-14T13:38:31.796Z,8.38
2018-12-14T13:40:59.897Z,8.45
2018-12-14T13:43:28.102Z,8.48
2018-12-14T13:45:56.274Z,9.40
2018-12-14T13:48:24.462Z,8.35
2018-12-14T13:50:52.636Z,9.28
2018-12-14T13:53:20.820Z,8.50
2018-12-14T13:55:48.999Z,11.95
2018-12-14T13:58:17.076Z,9.40
2018-12-14T14:00:45.171Z,9.35
2018-12-14T14:03:13.361Z,9.15
2018-12-14T14:05:41.545Z,9.68
2018-12-14T14:08:09.746Z,9.80
2018-12-14T14:10:37.937Z,9.43
2018-12-14T14:13:06.144Z,9.45
2018-12-14T14:15:34.294Z,9.13
2018-12-14T14:18:02.484Z,9.53
2018-12-14T14:20:30.723Z,9.30
2018-12-14T14:22:58.880Z,8.48
2018-12-14T14:25:27.320Z,9.38
2018-12-14T14:27:55.424Z,8.08
2018-12-14T14:30:23.519Z,9.23
2018-12-14T14:32:51.600Z,8.75
2018-12-14T14:35:19.788Z,8.93
2018-12-14T14:37:47.959Z,8.83
2018-12-14T14:40:16.072Z,8.63
2018-12-14T14:42:44.247Z,9.80
2018-12-14T14:45:12.538Z,8.73
2018-12-14T14:47:40.611Z,9.53
2018-12-14T14:50:09.308Z,9.48
2018-12-14T14:52:37.419Z,9.60
2018-12-14T14:55:05.891Z,9.68
2018-12-14T14:57:34.745Z,9.95
2018-12-14T15:00:02.889Z,9.95
2018-12-14T15:02:31.996Z,10.40
2018-12-14T15:05:00.183Z,9.95
2018-12-14T15:07:28.271Z,11.48
2018-12-14T15:09:56.452Z,11.43
2018-12-14T15:12:25.564Z,13.08
2018-12-14T15:14:53.768Z,11.53
2018-12-14T15:17:21.957Z,10.08
2018-12-14T15:19:50.149Z,11.35
2018-12-14T15:22:18.325Z,11.90
2018-12-14T15:24:46.565Z,11.30
2018-12-14T15:27:14.792Z,9.85
2018-12-14T15:29:42.990Z,9.78
2018-12-14T15:32:11.440Z,10.30
2018-12-14T15:34:39.567Z,9.03
2018-12-14T15:37:07.739Z,9.05
2018-12-14T15:39:35.949Z,8.38
2018-12-14T15:42:04.187Z,9.28
2018-12-14T15:44:32.343Z,9.50
2018-12-14T15:47:00.496Z,9.85
2018-12-14T15:49:28.693Z,10.00
2018-12-14T15:51:56.878Z,8.80
2018-12-14T15:54:25.064Z,9.25
2018-12-14T15:56:53.252Z,9.15
2018-12-14T15:59:21.350Z,9.05
2018-12-14T16:01:49.788Z,8.30
2018-12-14T16:04:17.909Z,8.30
2018-12-14T16:06:46.132Z,8.00
2018-12-14T16:09:14.283Z,9.48
2018-12-14T16:11:42.480Z,9.53
2018-12-14T16:14:10.665Z,8.88
2018-12-14T16:16:38.836Z,8.63
2018-12-14T16:19:07.008Z,8.70
2018-12-14T16:21:35.109Z,8.98
2018-12-14T16:24:03.292Z,10.25
2018-12-14T16:26:31.481Z,9.70
2018-12-14T16:28:59.667Z,12.68
2018-12-14T16:31:27.867Z,11.20
2018-12-14T16:33:56.032Z,10.48
2018-12-14T16:36:24.229Z,10.13
2018-12-14T16:38:52.415Z,9.93
2018-12-14T16:41:20.597Z,8.93
2018-12-14T16:43:48.780Z,10.25
2018-12-14T16:46:16.877Z,9.98
2018-12-14T16:48:45.060Z,9.48
2018-12-14T16:51:13.232Z,9.45
2018-12-14T16:53:46.823Z,10.10
2018-12-14T16:56:14.941Z,9.45
2018-12-14T16:58:43.136Z,9.65
2018-12-14T17:01:11.314Z,11.03
2018-12-14T17:03:39.512Z,11.57
2018-12-14T17:06:07.737Z,12.40
2018-12-14T17:08:35.892Z,13.30
2018-12-14T17:11:04.086Z,13.32
2018-12-14T17:13:32.354Z,14.45
2018-12-14T17:16:00.536Z,20.62
2018-12-14T17:18:28.759Z,12.98
2018-12-14T17:20:56.952Z,10.35
2018-12-14T17:23:25.121Z,9.90
2018-12-14T17:25:53.300Z,9.68
2018-12-14T17:28:21.494Z,8.88
2018-12-14T17:30:49.680Z,10.30
2018-12-14T17:33:17.869Z,9.15
2018-12-14T17:35:46.050Z,8.73
2018-12-14T17:38:14.340Z,9.83
2018-12-14T17:40:42.524Z,10.35
2018-12-14T17:43:10.620Z,9.60
2018-12-14T17:45:39.969Z,9.65
2018-12-14T17:48:08.257Z,9.98
2018-12-14T17:50:36.396Z,9.25
2018-12-14T17:53:04.592Z,9.93
2018-12-14T17:55:32.796Z,10.05
2018-12-14T17:58:00.965Z,10.28
2018-12-14T18:00:29.156Z,9.43
2018-12-14T18:02:57.440Z,9.50
2018-12-14T18:05:25.615Z,9.40
2018-12-14T18:07:53.828Z,9.05
2018-12-14T18:10:22.040Z,9.58
2018-12-14T18:12:50.191Z,9.43
2018-12-14T18:15:18.372Z,10.70
2018-12-14T18:17:46.580Z,10.53
2018-12-14T18:20:14.747Z,9.65
2018-12-14T18:22:42.995Z,10.13
2018-12-14T18:25:11.387Z,9.73
2018-12-14T18:27:39.684Z,9.98
2018-12-14T18:30:08.656Z,10.78
2018-12-14T18:32:36.807Z,11.75
2018-12-14T18:35:06.183Z,10.63
2018-12-14T18:37:34.320Z,10.28
2018-12-14T18:40:02.551Z,9.70
2018-12-14T18:42:30.651Z,10.25
2018-12-14T18:44:58.768Z,10.82
2018-12-14T18:47:26.968Z,10.25
2018-12-14T18:49:55.142Z,9.83
2018-12-14T18:52:23.934Z,10.08
2018-12-14T18:54:52.129Z,10.53
2018-12-14T18:57:24.472Z,9.88
2018-12-14T18:59:52.643Z,9.98
2018-12-14T19:02:20.792Z,9.95
2018-12-14T19:04:49.076Z,11.00
2018-12-14T19:07:17.295Z,10.85
2018-12-14T19:09:45.538Z,10.03
2018-12-14T19:12:13.711Z,10.15
2018-12-14T19:14:42.070Z,10.10
2018-12-14T19:17:10.324Z,10.43
2018-12-14T19:19:38.591Z,9.73
2018-12-14T19:22:06.803Z,10.40
2018-12-14T19:24:34.980Z,10.65
2018-12-14T19:27:03.167Z,10.45
2018-12-14T19:29:31.352Z,11.12
2018-12-14T19:31:59.551Z,10.80
2018-12-14T19:34:31.411Z,11.08
2018-12-14T19:36:57.932Z,10.58
2018-12-14T19:39:26.317Z,10.90
2018-12-14T19:41:54.516Z,10.65
2018-12-14T19:44:22.825Z,11.38
2018-12-14T19:46:51.028Z,10.05
2018-12-14T19:49:19.209Z,11.38
2018-12-14T19:51:47.400Z,10.63
2018-12-14T19:54:15.684Z,10.48
2018-12-14T19:56:44.031Z,9.85
2018-12-14T19:59:12.143Z,9.93
2018-12-14T20:01:40.353Z,9.90
2018-12-14T20:04:09.014Z,9.70
2018-12-14T20:06:37.232Z,10.58
2018-12-14T20:09:06.511Z,10.63
2018-12-14T20:11:34.768Z,16.65
2018-12-14T20:14:03.192Z,20.17
2018-12-14T20:16:31.313Z,13.38
2018-12-14T20:18:59.500Z,10.38
2018-12-14T20:21:27.675Z,10.28
2018-12-14T20:23:55.883Z,10.60
2018-12-14T20:26:24.055Z,9.73
2018-12-14T20:28:52.247Z,9.95
2018-12-14T20:31:20.419Z,9.88
2018-12-14T20:33:48.632Z,10.48
2018-12-14T20:36:16.894Z,10.72
2018-12-14T20:38:45.707Z,9.95
2018-12-14T20:41:13.999Z,10.03
2018-12-14T20:43:42.188Z,10.43
2018-12-14T20:46:10.371Z,10.70
2018-12-14T20:48:38.564Z,10.82
2018-12-14T20:51:06.743Z,10.88
2018-12-14T20:53:34.937Z,9.38
2018-12-14T20:56:03.120Z,9.80
2018-12-14T20:58:31.313Z,10.58
2018-12-14T21:00:59.406Z,9.28
2018-12-14T21:03:27.581Z,10.75
2018-12-14T21:05:55.760Z,10.50
2018-12-14T21:08:23.956Z,10.30
2018-12-14T21:10:52.155Z,10.10
2018-12-14T21:13:20.399Z,9.80
2018-12-14T21:15:48.627Z,10.35
2018-12-14T21:18:16.808Z,10.08
2018-12-14T21:20:44.984Z,10.35
2018-12-14T21:23:13.175Z,9.83
2018-12-14T21:25:41.362Z,10.13
2018-12-14T21:28:09.554Z,10.58
2018-12-14T21:30:37.724Z,9.90
2018-12-14T21:33:05.932Z,10.10
2018-12-14T21:35:34.123Z,9.63
2018-12-14T21:38:02.300Z,10.82
2018-12-14T21:40:30.478Z,10.93
2018-12-14T21:42:58.676Z,10.48
2018-12-14T21:45:26.864Z,11.08
2018-12-14T21:47:55.060Z,10.38
2018-12-14T21:50:23.244Z,10.20
2018-12-14T21:52:51.424Z,9.85
2018-12-14T21:55:19.616Z,10.63
2018-12-14T21:57:48.091Z,10.13
2018-12-14T22:00:16.188Z,10.60
2018-12-14T22:02:44.576Z,11.18
2018-12-14T22:05:12.760Z,10.15
2018-12-14T22:07:40.951Z,9.88
2018-12-14T22:10:09.603Z,10.10
2018-12-14T22:12:37.728Z,10.82
2018-12-14T22:15:06.387Z,10.38
2018-12-14T22:17:34.500Z,11.22
2018-12-14T22:20:02.715Z,11.18
2018-12-14T22:22:30.881Z,10.45
2018-12-14T22:24:59.191Z,10.48
2018-12-14T22:27:27.356Z,9.40
2018-12-14T22:29:55.552Z,10.48
2018-12-14T22:32:23.735Z,10.43
2018-12-14T22:34:51.912Z,10.35
2018-12-14T22:37:20.096Z,9.73
2018-12-14T22:39:48.463Z,10.40
2018-12-14T22:42:16.577Z,10.50
2018-12-14T22:44:44.765Z,11.20
2018-12-14T22:47:12.960Z,9.83
2018-12-14T22:49:41.136Z,10.25
2018-12-14T22:52:09.319Z,10.35
2018-12-14T22:54:37.512Z,10.45
2018-12-14T22:57:05.693Z,10.38
2018-12-14T22:59:33.888Z,10.50
2018-12-14T23:02:02.096Z,10.50
2018-12-14T23:04:30.372Z,10.40
2018-12-14T23:06:58.584Z,10.48
2018-12-14T23:09:26.732Z,11.08
2018-12-14T23:11:54.926Z,10.93
2018-12-14T23:14:23.112Z,11.57
2018-12-14T23:16:52.464Z,11.35
2018-12-14T23:19:20.728Z,10.95
2018-12-14T23:21:48.908Z,11.33
2018-12-14T23:24:17.108Z,12.13
2018-12-14T23:26:45.328Z,10.25
2018-12-14T23:29:13.484Z,11.05
2018-12-14T23:31:41.660Z,10.80
2018-12-14T23:34:09.843Z,11.18
2018-12-14T23:36:37.944Z,10.65
2018-12-14T23:39:07.063Z,11.53
2018-12-14T23:41:35.235Z,11.68
2018-12-14T23:44:03.644Z,10.38
2018-12-14T23:46:31.802Z,9.95
2018-12-14T23:48:59.997Z,10.60
2018-12-14T23:51:28.175Z,11.38
2018-12-14T23:53:56.371Z,11.83
2018-12-14T23:56:24.544Z,12.03
2018-12-14T23:58:52.749Z,11.30
